createdAt,value
2023-02-25T00:00:23.456Z,10.20
2023-02-25T00:01:22.358Z,10.25
2023-02-25T00:02:22.255Z,10.23
2023-02-25T00:03:21.453Z,10.22
2023-02-25T00:04:21.992Z,10.14
2023-02-25T00:05:21.616Z,10.17
2023-02-25T00:06:22.521Z,10.15
2023-02-25T00:07:22.364Z,10.16
2023-02-25T00:08:21.758Z,10.18
2023-02-25T00:09:22.142Z,10.17
2023-02-25T00:10:21.702Z,10.18
2023-02-25T00:11:21.824Z,10.19
2023-02-25T00:12:21.271Z,10.17
2023-02-25T00:13:21.827Z,10.14
2023-02-25T00:14:22.156Z,10.17
2023-02-25T00:15:22.764Z,10.18
2023-02-25T00:16:22.791Z,10.12
2023-02-25T00:17:21.932Z,10.13
2023-02-25T00:18:21.783Z,10.13
2023-02-25T00:19:21.678Z,10.15
2023-02-25T00:20:21.894Z,10.15
2023-02-25T00:21:22.225Z,10.11
2023-02-25T00:22:21.631Z,10.11
2023-02-25T00:23:21.701Z,10.09
2023-02-25T00:24:21.435Z,10.07
2023-02-25T00:25:21.862Z,10.09
2023-02-25T00:26:22.238Z,10.11
2023-02-25T00:27:21.869Z,10.10
2023-02-25T00:28:21.863Z,10.13
2023-02-25T00:29:21.845Z,10.15
2023-02-25T00:30:22.415Z,10.16
2023-02-25T00:31:21.586Z,10.15
2023-02-25T00:32:21.590Z,10.17
2023-02-25T00:33:21.558Z,10.20
2023-02-25T00:34:21.844Z,10.19
2023-02-25T00:35:21.865Z,10.20
2023-02-25T00:36:21.715Z,10.21
2023-02-25T00:37:21.014Z,10.22
2023-02-25T00:38:21.639Z,10.23
2023-02-25T00:39:21.356Z,10.23
2023-02-25T00:40:21.579Z,10.22
2023-02-25T00:41:21.312Z,10.18
2023-02-25T00:42:21.813Z,10.15
2023-02-25T00:43:21.666Z,10.17
2023-02-25T00:44:21.467Z,10.15
2023-02-25T00:45:22.270Z,10.07
2023-02-25T00:46:22.697Z,10.07
2023-02-25T00:47:21.627Z,10.05
2023-02-25T00:48:20.951Z,10.05
2023-02-25T00:49:32.213Z,10.03
2023-02-25T00:50:22.042Z,9.994
2023-02-25T00:51:22.225Z,10.02
2023-02-25T00:52:21.345Z,10.05
2023-02-25T00:53:21.958Z,10.09
2023-02-25T00:54:20.974Z,10.10
2023-02-25T00:55:22.186Z,10.08
2023-02-25T00:56:21.867Z,10.03
2023-02-25T00:57:22.081Z,10.05
2023-02-25T00:58:22.119Z,10.06
2023-02-25T00:59:21.098Z,10.10
2023-02-25T01:00:22.581Z,10.13
2023-02-25T01:01:24.383Z,10.11
2023-02-25T01:02:21.796Z,10.14
2023-02-25T01:03:21.499Z,10.10
2023-02-25T01:04:21.941Z,10.08
2023-02-25T01:05:21.625Z,10.02
2023-02-25T01:06:21.478Z,10.00
2023-02-25T01:07:21.573Z,10.01
2023-02-25T01:08:21.473Z,10.03
2023-02-25T01:09:21.212Z,10.07
2023-02-25T01:10:22.445Z,10.05
2023-02-25T01:11:21.754Z,10.09
2023-02-25T01:12:22.274Z,10.13
2023-02-25T01:13:21.632Z,10.14
2023-02-25T01:14:21.494Z,10.09
2023-02-25T01:15:22.060Z,10.08
2023-02-25T01:16:22.386Z,10.07
2023-02-25T01:17:21.466Z,10.06
2023-02-25T01:18:22.429Z,10.06
2023-02-25T01:19:21.489Z,10.03
2023-02-25T01:20:22.534Z,10.02
2023-02-25T01:21:21.162Z,10.02
2023-02-25T01:22:21.477Z,9.925
2023-02-25T01:23:21.334Z,9.930
2023-02-25T01:24:21.544Z,9.869
2023-02-25T01:25:21.250Z,9.779
2023-02-25T01:26:21.837Z,9.720
2023-02-25T01:27:21.347Z,9.725
2023-02-25T01:28:21.501Z,9.734
2023-02-25T01:29:21.682Z,9.755
2023-02-25T01:30:22.011Z,9.694
2023-02-25T01:31:21.941Z,9.694
2023-02-25T01:32:21.635Z,9.649
2023-02-25T01:33:21.715Z,9.637
2023-02-25T01:34:21.806Z,9.600
2023-02-25T01:35:20.997Z,9.609
2023-02-25T01:36:21.881Z,9.614
2023-02-25T01:37:21.563Z,9.590
2023-02-25T01:38:21.223Z,9.520
2023-02-25T01:39:21.281Z,9.520
2023-02-25T01:40:21.755Z,9.529
2023-02-25T01:41:21.264Z,9.515
2023-02-25T01:42:21.029Z,9.524
2023-02-25T01:43:21.312Z,9.510
2023-02-25T01:44:21.550Z,9.420
2023-02-25T01:45:22.431Z,9.454
2023-02-25T01:46:21.045Z,9.479
2023-02-25T01:47:21.345Z,9.520
2023-02-25T01:48:21.547Z,9.569
2023-02-25T01:49:21.717Z,9.564
2023-02-25T01:50:21.888Z,9.579
2023-02-25T01:51:21.678Z,9.626
2023-02-25T01:52:21.090Z,9.600
2023-02-25T01:53:20.736Z,9.555
2023-02-25T01:54:21.403Z,9.545
2023-02-25T01:55:21.506Z,9.505
2023-02-25T01:56:22.212Z,9.545
2023-02-25T01:57:21.738Z,9.560
2023-02-25T01:58:21.899Z,9.574
2023-02-25T01:59:21.917Z,9.555
2023-02-25T02:00:23.519Z,9.534
2023-02-25T02:01:21.827Z,9.5
2023-02-25T02:02:22.642Z,9.489
2023-02-25T02:03:21.714Z,9.489
2023-02-25T02:04:21.551Z,9.494
2023-02-25T02:05:21.764Z,9.475
2023-02-25T02:06:22.261Z,9.475
2023-02-25T02:07:21.074Z,9.484
2023-02-25T02:08:22.050Z,9.465
2023-02-25T02:09:21.843Z,9.484
2023-02-25T02:10:22.065Z,9.435
2023-02-25T02:11:21.543Z,9.435
2023-02-25T02:12:21.816Z,9.404
2023-02-25T02:13:21.744Z,9.385
2023-02-25T02:14:21.907Z,9.390
2023-02-25T02:15:21.761Z,9.345
2023-02-25T02:16:22.772Z,9.385
2023-02-25T02:17:21.553Z,9.420
2023-02-25T02:18:21.918Z,9.434
2023-02-25T02:19:21.801Z,9.326
2023-02-25T02:20:21.162Z,9.321
2023-02-25T02:21:21.817Z,9.407
2023-02-25T02:22:21.492Z,9.398
2023-02-25T02:23:22.346Z,9.420
2023-02-25T02:24:21.456Z,9.395
2023-02-25T02:25:21.713Z,9.378
2023-02-25T02:26:22.310Z,9.383
2023-02-25T02:27:21.396Z,9.444
2023-02-25T02:28:21.002Z,9.423
2023-02-25T02:29:21.226Z,9.430
2023-02-25T02:30:21.497Z,9.439
2023-02-25T02:31:21.043Z,9.414
2023-02-25T02:32:21.730Z,9.321
2023-02-25T02:33:21.476Z,9.345
2023-02-25T02:34:21.495Z,9.338
2023-02-25T02:35:21.408Z,9.350
2023-02-25T02:36:21.792Z,9.379
2023-02-25T02:37:21.308Z,9.326
2023-02-25T02:38:22.236Z,9.321
2023-02-25T02:39:21.210Z,9.305
2023-02-25T02:40:21.936Z,9.229
2023-02-25T02:41:20.895Z,9.244
2023-02-25T02:42:22.185Z,9.229
2023-02-25T02:43:21.149Z,9.215
2023-02-25T02:44:21.517Z,9.154
2023-02-25T02:45:21.535Z,9.090
2023-02-25T02:46:22.085Z,9.154
2023-02-25T02:47:21.315Z,9.189
2023-02-25T02:48:21.816Z,9.215
2023-02-25T02:49:21.381Z,9.284
2023-02-25T02:50:21.821Z,9.321
2023-02-25T02:51:21.895Z,9.366
2023-02-25T02:52:22.079Z,9.338
2023-02-25T02:53:21.964Z,9.317
2023-02-25T02:54:22.292Z,9.265
2023-02-25T02:55:21.395Z,9.284
2023-02-25T02:56:21.920Z,9.350
2023-02-25T02:57:21.512Z,9.366
2023-02-25T02:58:21.372Z,9.300
2023-02-25T02:59:21.349Z,9.321
2023-02-25T03:00:23.034Z,9.315
2023-02-25T03:01:21.884Z,9.371
2023-02-25T03:02:21.586Z,9.414
2023-02-25T03:03:21.863Z,9.465
2023-02-25T03:04:22.028Z,9.489
2023-02-25T03:05:22.389Z,9.435
2023-02-25T03:06:22.039Z,9.414
2023-02-25T03:07:21.879Z,9.321
2023-02-25T03:08:22.065Z,9.394
2023-02-25T03:09:21.115Z,9.460
2023-02-25T03:10:21.298Z,9.460
2023-02-25T03:11:21.109Z,9.460
2023-02-25T03:12:21.157Z,9.515
2023-02-25T03:13:21.367Z,9.529
2023-02-25T03:14:21.353Z,9.560
2023-02-25T03:15:21.547Z,9.595
2023-02-25T03:16:22.403Z,9.579
2023-02-25T03:17:21.992Z,9.569
2023-02-25T03:18:20.892Z,9.539
2023-02-25T03:19:21.985Z,9.515
2023-02-25T03:20:22.034Z,9.555
2023-02-25T03:21:21.797Z,9.550
2023-02-25T03:22:21.462Z,9.539
2023-02-25T03:23:21.682Z,9.510
2023-02-25T03:24:21.582Z,9.475
2023-02-25T03:25:21.777Z,9.479
2023-02-25T03:26:21.873Z,9.465
2023-02-25T03:27:22.129Z,9.489
2023-02-25T03:28:21.035Z,9.524
2023-02-25T03:29:21.546Z,9.5
2023-02-25T03:30:21.466Z,9.470
2023-02-25T03:31:21.896Z,9.510
2023-02-25T03:32:21.984Z,9.444
2023-02-25T03:33:21.891Z,9.420
2023-02-25T03:34:22.127Z,9.439
2023-02-25T03:35:21.976Z,9.399
2023-02-25T03:36:21.923Z,9.380
2023-02-25T03:37:21.390Z,9.366
2023-02-25T03:38:21.146Z,9.421
2023-02-25T03:39:21.774Z,9.439
2023-02-25T03:40:21.666Z,9.483
2023-02-25T03:41:21.644Z,9.564
2023-02-25T03:42:21.440Z,9.546
2023-02-25T03:43:22.080Z,9.5
2023-02-25T03:44:21.006Z,9.529
2023-02-25T03:45:22.373Z,9.522
2023-02-25T03:46:21.656Z,9.494
2023-02-25T03:47:22.311Z,9.454
2023-02-25T03:48:21.560Z,9.479
2023-02-25T03:49:22.031Z,9.444
2023-02-25T03:50:22.221Z,9.444
2023-02-25T03:51:21.211Z,9.444
2023-02-25T03:52:21.302Z,9.479
2023-02-25T03:53:21.473Z,9.460
2023-02-25T03:54:22.037Z,9.470
2023-02-25T03:55:21.667Z,9.470
2023-02-25T03:56:22.186Z,9.489
2023-02-25T03:57:21.802Z,9.5
2023-02-25T03:58:22.108Z,9.505
2023-02-25T03:59:21.402Z,9.569
2023-02-25T04:00:23.005Z,9.620
2023-02-25T04:01:22.278Z,9.609
2023-02-25T04:02:22.092Z,9.555
2023-02-25T04:03:22.115Z,9.609
2023-02-25T04:04:22.359Z,9.604
2023-02-25T04:05:22.111Z,9.585
2023-02-25T04:06:22.398Z,9.550
2023-02-25T04:07:22.180Z,9.564
2023-02-25T04:08:21.920Z,9.574
2023-02-25T04:09:21.907Z,9.574
2023-02-25T04:10:23.216Z,9.569
2023-02-25T04:11:22.080Z,9.529
2023-02-25T04:12:22.012Z,9.529
2023-02-25T04:13:21.368Z,9.505
2023-02-25T04:14:21.637Z,9.484
2023-02-25T04:15:22.671Z,9.505
2023-02-25T04:16:22.517Z,9.550
2023-02-25T04:17:21.355Z,9.529
2023-02-25T04:18:22.578Z,9.5
2023-02-25T04:19:21.830Z,9.470
2023-02-25T04:20:22.332Z,9.489
2023-02-25T04:21:22.323Z,9.5
2023-02-25T04:22:21.891Z,9.470
2023-02-25T04:23:21.734Z,9.494
2023-02-25T04:24:21.504Z,9.515
2023-02-25T04:25:22.016Z,9.505
2023-02-25T04:26:22.417Z,9.505
2023-02-25T04:27:22.348Z,9.515
2023-02-25T04:28:21.752Z,9.534
2023-02-25T04:29:21.656Z,9.539
2023-02-25T04:30:22.122Z,9.574
2023-02-25T04:31:21.393Z,9.520
2023-02-25T04:32:22.457Z,9.5
2023-02-25T04:33:21.935Z,9.5
2023-02-25T04:34:21.605Z,9.515
2023-02-25T04:35:22.048Z,9.515
2023-02-25T04:36:21.894Z,9.475
2023-02-25T04:37:22.190Z,9.449
2023-02-25T04:38:22.043Z,9.439
2023-02-25T04:39:21.488Z,9.409
2023-02-25T04:40:22.548Z,9.470
2023-02-25T04:41:21.844Z,9.449
2023-02-25T04:42:21.461Z,9.465
2023-02-25T04:43:22.111Z,9.425
2023-02-25T04:44:21.372Z,9.409
2023-02-25T04:45:22.255Z,9.366
2023-02-25T04:46:21.967Z,9.361
2023-02-25T04:47:22.437Z,9.317
2023-02-25T04:48:21.600Z,9.345
2023-02-25T04:49:22.577Z,9.366
2023-02-25T04:50:21.977Z,9.395
2023-02-25T04:51:22.194Z,9.425
2023-02-25T04:52:21.829Z,9.439
2023-02-25T04:53:22.136Z,9.399
2023-02-25T04:54:21.742Z,9.460
2023-02-25T04:55:22.443Z,9.383
2023-02-25T04:56:22.604Z,9.404
2023-02-25T04:57:22.213Z,9.399
2023-02-25T04:58:21.810Z,9.399
2023-02-25T04:59:21.729Z,9.378
2023-02-25T05:00:23.923Z,9.321
2023-02-25T05:01:22.570Z,9.354
2023-02-25T05:02:22.158Z,9.373
2023-02-25T05:03:21.939Z,9.350
2023-02-25T05:04:22.296Z,9.373
2023-02-25T05:05:22.257Z,9.392
2023-02-25T05:06:22.575Z,9.355
2023-02-25T05:07:22.637Z,9.379
2023-02-25T05:08:22.082Z,9.425
2023-02-25T05:09:21.868Z,9.379
2023-02-25T05:10:22.349Z,9.420
2023-02-25T05:11:22.677Z,9.420
2023-02-25T05:12:22.976Z,9.439
2023-02-25T05:13:22.327Z,9.460
2023-02-25T05:14:22.386Z,9.505
2023-02-25T05:15:22.095Z,9.489
2023-02-25T05:16:22.550Z,9.5
2023-02-25T05:17:23.203Z,9.505
2023-02-25T05:18:22.226Z,9.515
2023-02-25T05:19:23.209Z,9.479
2023-02-25T05:20:22.832Z,9.489
2023-02-25T05:21:23.574Z,9.520
2023-02-25T05:22:22.191Z,9.564
2023-02-25T05:23:22.365Z,9.550
2023-02-25T05:24:22.327Z,9.539
2023-02-25T05:25:22.952Z,9.515
2023-02-25T05:26:22.443Z,9.484
2023-02-25T05:27:22.089Z,9.475
2023-02-25T05:28:21.607Z,9.449
2023-02-25T05:29:22.146Z,9.435
2023-02-25T05:30:22.235Z,9.414
2023-02-25T05:31:22.256Z,9.439
2023-02-25T05:32:22.181Z,9.414
2023-02-25T05:33:21.884Z,9.409
2023-02-25T05:34:21.815Z,9.475
2023-02-25T05:35:22.394Z,9.520
2023-02-25T05:36:23.157Z,9.5
2023-02-25T05:37:22.120Z,9.505
2023-02-25T05:38:22.442Z,9.484
2023-02-25T05:39:22.404Z,9.489
2023-02-25T05:40:22.416Z,9.520
2023-02-25T05:41:22.175Z,9.520
2023-02-25T05:42:23.916Z,9.555
2023-02-25T05:43:22.126Z,9.545
2023-02-25T05:44:21.871Z,9.515
2023-02-25T05:45:22.028Z,9.524
2023-02-25T05:46:22.523Z,9.550
2023-02-25T05:47:22.708Z,9.579
2023-02-25T05:48:21.842Z,9.534
2023-02-25T05:49:21.944Z,9.520
2023-02-25T05:50:22.190Z,9.534
2023-02-25T05:51:21.570Z,9.555
2023-02-25T05:52:21.757Z,9.515
2023-02-25T05:53:22.318Z,9.545
2023-02-25T05:54:21.320Z,9.579
2023-02-25T05:55:22.129Z,9.590
2023-02-25T05:56:22.735Z,9.631
2023-02-25T05:57:22.453Z,9.600
2023-02-25T05:58:21.933Z,9.611
2023-02-25T05:59:21.775Z,9.637
2023-02-25T06:00:23.650Z,9.560
2023-02-25T06:01:22.433Z,9.574
2023-02-25T06:02:22.097Z,9.569
2023-02-25T06:03:22.290Z,9.569
2023-02-25T06:04:22.210Z,9.524
2023-02-25T06:05:22.623Z,9.524
2023-02-25T06:06:22.657Z,9.569
2023-02-25T06:07:21.671Z,9.605
2023-02-25T06:08:21.978Z,9.632
2023-02-25T06:09:22.141Z,9.640
2023-02-25T06:10:21.693Z,9.604
2023-02-25T06:11:22.459Z,9.581
2023-02-25T06:12:22.870Z,9.555
2023-02-25T06:13:23.000Z,9.555
2023-02-25T06:14:22.291Z,9.565
2023-02-25T06:15:21.412Z,9.518
2023-02-25T06:16:22.658Z,9.520
2023-02-25T06:17:22.884Z,9.494
2023-02-25T06:18:22.093Z,9.520
2023-02-25T06:19:21.737Z,9.5
2023-02-25T06:20:22.481Z,9.5
2023-02-25T06:21:22.013Z,9.489
2023-02-25T06:22:22.416Z,9.489
2023-02-25T06:23:22.112Z,9.5
2023-02-25T06:24:22.028Z,9.494
2023-02-25T06:25:22.032Z,9.420
2023-02-25T06:26:22.910Z,9.409
2023-02-25T06:27:22.175Z,9.395
2023-02-25T06:28:22.002Z,9.362
2023-02-25T06:29:21.852Z,9.355
2023-02-25T06:30:23.408Z,9.383
2023-02-25T06:31:22.132Z,9.425
2023-02-25T06:32:22.305Z,9.465
2023-02-25T06:33:21.928Z,9.465
2023-02-25T06:34:21.875Z,9.479
2023-02-25T06:35:22.625Z,9.460
2023-02-25T06:36:22.931Z,9.479
2023-02-25T06:37:22.161Z,9.510
2023-02-25T06:38:22.038Z,9.545
2023-02-25T06:39:22.340Z,9.574
2023-02-25T06:40:22.475Z,9.524
2023-02-25T06:41:22.094Z,9.465
2023-02-25T06:42:21.757Z,9.439
2023-02-25T06:43:22.236Z,9.434
2023-02-25T06:44:22.947Z,9.420
2023-02-25T06:45:22.102Z,9.420
2023-02-25T06:46:23.044Z,9.430
2023-02-25T06:47:21.945Z,9.404
2023-02-25T06:48:21.590Z,9.439
2023-02-25T06:49:22.196Z,9.449
2023-02-25T06:50:22.931Z,9.5
2023-02-25T06:51:22.420Z,9.494
2023-02-25T06:52:22.880Z,9.470
2023-02-25T06:53:22.492Z,9.5
2023-02-25T06:54:22.735Z,9.475
2023-02-25T06:55:22.821Z,9.465
2023-02-25T06:56:22.845Z,9.515
2023-02-25T06:57:23.056Z,9.524
2023-02-25T06:58:22.677Z,9.529
2023-02-25T06:59:22.568Z,9.510
2023-02-25T07:00:24.436Z,9.524
2023-02-25T07:01:23.864Z,9.529
2023-02-25T07:02:23.934Z,9.569
2023-02-25T07:03:24.249Z,9.545
2023-02-25T07:04:22.778Z,9.534
2023-02-25T07:05:23.143Z,9.545
2023-02-25T07:06:22.471Z,9.579
2023-02-25T07:07:22.548Z,9.626
2023-02-25T07:08:21.972Z,9.637
2023-02-25T07:09:22.250Z,9.637
2023-02-25T07:10:22.901Z,9.574
2023-02-25T07:11:23.364Z,9.529
2023-02-25T07:12:22.854Z,9.539
2023-02-25T07:13:22.928Z,9.609
2023-02-25T07:14:23.584Z,9.637
2023-02-25T07:15:23.455Z,9.682
2023-02-25T07:16:23.415Z,9.725
2023-02-25T07:17:23.437Z,9.720
2023-02-25T07:18:23.329Z,9.699
2023-02-25T07:19:22.118Z,9.699
2023-02-25T07:20:23.041Z,9.699
2023-02-25T07:21:22.994Z,9.670
2023-02-25T07:22:24.205Z,9.666
2023-02-25T07:23:23.133Z,9.637
2023-02-25T07:24:23.820Z,9.626
2023-02-25T07:25:22.846Z,9.626
2023-02-25T07:26:23.167Z,9.631
2023-02-25T07:27:22.843Z,9.604
2023-02-25T07:28:23.559Z,9.654
2023-02-25T07:29:22.511Z,9.671
2023-02-25T07:30:23.054Z,9.649
2023-02-25T07:31:23.594Z,9.632
2023-02-25T07:32:22.812Z,9.597
2023-02-25T07:33:22.569Z,9.595
2023-02-25T07:34:23.181Z,9.604
2023-02-25T07:35:22.882Z,9.640
2023-02-25T07:36:22.206Z,9.677
2023-02-25T07:37:22.887Z,9.706
2023-02-25T07:38:22.368Z,9.708
2023-02-25T07:39:22.707Z,9.883
2023-02-25T07:40:22.542Z,9.817
2023-02-25T07:41:23.086Z,9.817
2023-02-25T07:42:23.073Z,9.765
2023-02-25T07:43:23.184Z,9.789
2023-02-25T07:44:22.371Z,9.835
2023-02-25T07:45:22.936Z,9.888
2023-02-25T07:46:23.283Z,9.829
2023-02-25T07:47:23.722Z,9.765
2023-02-25T07:48:23.035Z,9.734
2023-02-25T07:49:22.408Z,9.704
2023-02-25T07:50:23.010Z,9.678
2023-02-25T07:51:23.794Z,9.704
2023-02-25T07:52:23.730Z,9.710
2023-02-25T07:53:22.667Z,9.699
2023-02-25T07:54:22.552Z,9.699
2023-02-25T07:55:22.504Z,9.677
2023-02-25T07:56:22.897Z,9.699
2023-02-25T07:57:22.947Z,9.725
2023-02-25T07:58:22.475Z,9.734
2023-02-25T07:59:22.295Z,9.710
2023-02-25T08:00:24.238Z,9.720
2023-02-25T08:01:23.092Z,9.765
2023-02-25T08:02:22.789Z,9.810
2023-02-25T08:03:22.982Z,9.779
2023-02-25T08:04:23.494Z,9.789
2023-02-25T08:05:22.944Z,9.821
2023-02-25T08:06:22.446Z,9.828
2023-02-25T08:07:22.933Z,9.859
2023-02-25T08:08:22.489Z,9.935
2023-02-25T08:09:22.841Z,9.960
2023-02-25T08:10:22.989Z,9.970
2023-02-25T08:11:23.189Z,10.00
2023-02-25T08:12:22.321Z,10.05
2023-02-25T08:13:22.838Z,10.05
2023-02-25T08:14:23.221Z,10.06
2023-02-25T08:15:23.004Z,10.05
2023-02-25T08:16:23.028Z,10.11
2023-02-25T08:17:23.448Z,10.12
2023-02-25T08:18:23.652Z,10.17
2023-02-25T08:19:23.425Z,10.23
2023-02-25T08:20:23.045Z,10.29
2023-02-25T08:21:23.075Z,10.33
2023-02-25T08:22:22.694Z,10.37
2023-02-25T08:23:23.137Z,10.40
2023-02-25T08:24:23.254Z,10.43
2023-02-25T08:25:22.776Z,10.44
2023-02-25T08:26:22.142Z,10.44
2023-02-25T08:27:22.689Z,10.40
2023-02-25T08:28:22.813Z,10.46
2023-02-25T08:29:22.638Z,10.49
2023-02-25T08:30:23.072Z,10.52
2023-02-25T08:31:23.147Z,10.55
2023-02-25T08:32:23.026Z,10.56
2023-02-25T08:33:22.144Z,10.59
2023-02-25T08:34:22.434Z,10.57
2023-02-25T08:35:22.502Z,10.56
2023-02-25T08:36:22.961Z,10.57
2023-02-25T08:37:22.418Z,10.62
2023-02-25T08:38:22.172Z,10.59
2023-02-25T08:39:22.310Z,10.53
2023-02-25T08:40:23.167Z,10.57
2023-02-25T08:41:23.334Z,10.55
2023-02-25T08:42:22.629Z,10.53
2023-02-25T08:43:23.017Z,10.54
2023-02-25T08:44:22.508Z,10.53
2023-02-25T08:45:23.027Z,10.59
2023-02-25T08:46:22.985Z,10.66
2023-02-25T08:47:23.100Z,10.71
2023-02-25T08:48:23.108Z,10.75
2023-02-25T08:49:22.902Z,10.75
2023-02-25T08:50:22.778Z,10.79
2023-02-25T08:51:23.622Z,10.82
2023-02-25T08:52:23.061Z,10.81
2023-02-25T08:53:22.670Z,10.81
2023-02-25T08:54:23.186Z,10.80
2023-02-25T08:55:22.811Z,10.85
2023-02-25T08:56:22.738Z,10.96
2023-02-25T08:57:22.854Z,10.92
2023-02-25T08:58:23.844Z,10.90
2023-02-25T08:59:28.335Z,10.89
2023-02-25T09:00:23.927Z,10.90
2023-02-25T09:01:23.783Z,10.88
2023-02-25T09:02:23.677Z,10.86
2023-02-25T09:03:28.152Z,10.87
2023-02-25T09:04:23.374Z,10.89
2023-02-25T09:05:28.659Z,10.90
2023-02-25T09:06:22.643Z,10.96
2023-02-25T09:07:23.092Z,11.04
2023-02-25T09:08:22.808Z,11.02
2023-02-25T09:09:28.174Z,11.06
2023-02-25T09:10:23.620Z,11.06
2023-02-25T09:11:23.340Z,11.06
2023-02-25T09:12:24.834Z,11.09
2023-02-25T09:13:22.972Z,11.14
2023-02-25T09:14:22.937Z,11.19
2023-02-25T09:15:24.101Z,11.25
2023-02-25T09:16:22.750Z,11.27
2023-02-25T09:17:22.921Z,11.30
2023-02-25T09:18:23.407Z,11.35
2023-02-25T09:19:22.672Z,11.41
2023-02-25T09:20:23.200Z,11.42
2023-02-25T09:21:23.500Z,11.46
2023-02-25T09:22:23.033Z,11.51
2023-02-25T09:23:22.178Z,11.52
2023-02-25T09:24:22.744Z,11.59
2023-02-25T09:25:23.462Z,11.64
2023-02-25T09:26:22.135Z,11.49
2023-02-25T09:27:22.473Z,11.42
2023-02-25T09:28:24.497Z,11.31
2023-02-25T09:29:22.366Z,11.30
2023-02-25T09:30:23.265Z,11.29
2023-02-25T09:31:23.510Z,11.27
2023-02-25T09:32:22.540Z,11.26
2023-02-25T09:33:22.765Z,11.21
2023-02-25T09:34:22.330Z,11.22
2023-02-25T09:35:22.648Z,11.19
2023-02-25T09:36:23.053Z,11.23
2023-02-25T09:37:22.907Z,11.22
2023-02-25T09:38:22.551Z,11.23
2023-02-25T09:39:22.638Z,11.23
2023-02-25T09:40:23.531Z,11.29
2023-02-25T09:41:22.348Z,11.33
2023-02-25T09:42:22.639Z,11.35
2023-02-25T09:43:22.365Z,11.32
2023-02-25T09:44:22.939Z,11.30
2023-02-25T09:45:22.713Z,11.27
2023-02-25T09:46:22.083Z,11.27
2023-02-25T09:47:22.594Z,11.26
2023-02-25T09:48:22.609Z,11.27
2023-02-25T09:49:22.232Z,11.23
2023-02-25T09:50:22.872Z,11.20
2023-02-25T09:51:23.379Z,11.21
2023-02-25T09:52:23.196Z,11.16
2023-02-25T09:53:23.463Z,11.18
2023-02-25T09:54:22.636Z,11.21
2023-02-25T09:55:23.434Z,11.17
2023-02-25T09:56:22.745Z,11.16
2023-02-25T09:57:22.719Z,11.21
2023-02-25T09:58:22.513Z,11.25
2023-02-25T09:59:22.340Z,11.27
2023-02-25T10:00:24.284Z,11.27
2023-02-25T10:01:23.722Z,11.27
2023-02-25T10:02:22.928Z,11.32
2023-02-25T10:03:22.328Z,11.30
2023-02-25T10:04:22.542Z,11.35
2023-02-25T10:05:22.206Z,11.32
2023-02-25T10:06:22.938Z,11.32
2023-02-25T10:07:22.478Z,11.33
2023-02-25T10:08:22.652Z,11.31
2023-02-25T10:09:22.551Z,11.32
2023-02-25T10:10:23.177Z,11.36
2023-02-25T10:11:22.754Z,11.39
2023-02-25T10:12:23.012Z,11.40
2023-02-25T10:13:23.450Z,11.40
2023-02-25T10:14:22.430Z,11.39
2023-02-25T10:15:23.483Z,11.39
2023-02-25T10:16:22.596Z,11.39
2023-02-25T10:17:23.027Z,11.41
2023-02-25T10:18:22.541Z,11.39
2023-02-25T10:19:21.813Z,11.36
2023-02-25T10:20:22.897Z,11.40
2023-02-25T10:21:22.846Z,11.40
2023-02-25T10:22:22.533Z,11.39
2023-02-25T10:23:22.250Z,11.40
2023-02-25T10:24:22.691Z,11.43
2023-02-25T10:25:23.621Z,11.48
2023-02-25T10:26:22.877Z,11.46
2023-02-25T10:27:22.676Z,11.45
2023-02-25T10:28:23.323Z,11.43
2023-02-25T10:30:24.467Z,11.40
2023-02-25T10:32:25.938Z,11.40
2023-02-25T10:33:22.182Z,11.35
2023-02-25T10:34:23.112Z,11.36
2023-02-25T10:35:22.650Z,11.34
2023-02-25T10:36:23.084Z,11.37
2023-02-25T10:37:23.213Z,11.28
2023-02-25T10:38:22.704Z,11.26
2023-02-25T10:39:22.691Z,11.27
2023-02-25T10:40:21.687Z,11.20
2023-02-25T10:41:24.000Z,11.18
2023-02-25T10:42:23.088Z,11.18
2023-02-25T10:43:22.232Z,11.20
2023-02-25T10:44:22.634Z,11.22
2023-02-25T10:45:22.015Z,11.23
2023-02-25T10:46:22.474Z,11.22
2023-02-25T10:47:22.519Z,11.21
2023-02-25T10:48:22.486Z,11.22
2023-02-25T10:49:22.276Z,11.19
2023-02-25T10:50:25.827Z,11.16
2023-02-25T10:51:23.904Z,11.12
2023-02-25T10:52:22.999Z,11.11
2023-02-25T10:53:24.153Z,11.12
2023-02-25T10:54:21.759Z,11.15
2023-02-25T10:55:22.729Z,11.24
2023-02-25T10:56:22.615Z,11.33
2023-02-25T10:57:23.385Z,11.27
2023-02-25T10:58:22.130Z,11.22
2023-02-25T10:59:23.619Z,11.19
2023-02-25T11:00:24.320Z,11.16
2023-02-25T11:01:23.120Z,11.15
2023-02-25T11:02:23.144Z,11.10
2023-02-25T11:03:22.838Z,11.08
2023-02-25T11:04:23.951Z,11.10
2023-02-25T11:05:23.512Z,11.10
2023-02-25T11:06:24.331Z,11.11
2023-02-25T11:07:23.560Z,11.19
2023-02-25T11:08:23.453Z,11.22
2023-02-25T11:09:24.138Z,11.15
2023-02-25T11:10:23.049Z,11.10
2023-02-25T11:11:23.083Z,11.18
2023-02-25T11:12:23.165Z,11.28
2023-02-25T11:13:22.596Z,11.36
2023-02-25T11:14:22.552Z,11.43
2023-02-25T11:15:29.223Z,11.50
2023-02-25T11:16:23.133Z,11.59
2023-02-25T11:17:23.374Z,11.73
2023-02-25T11:18:22.868Z,11.80
2023-02-25T11:19:22.616Z,11.88
2023-02-25T11:20:23.059Z,12
2023-02-25T11:21:23.006Z,12.10
2023-02-25T11:22:22.945Z,12.12
2023-02-25T11:23:22.598Z,12.17
2023-02-25T11:24:22.645Z,12.27
2023-02-25T11:25:22.591Z,12.54
2023-02-25T11:26:22.701Z,12.59
2023-02-25T11:27:22.515Z,12.63
2023-02-25T11:28:22.340Z,12.64
2023-02-25T11:29:22.504Z,12.58
2023-02-25T11:30:22.290Z,12.53
2023-02-25T11:31:22.876Z,12.53
2023-02-25T11:32:22.470Z,12.52
2023-02-25T11:33:22.549Z,12.53
2023-02-25T11:34:22.454Z,12.54
2023-02-25T11:35:22.768Z,12.60
2023-02-25T11:36:23.154Z,12.72
2023-02-25T11:37:22.490Z,12.63
2023-02-25T11:38:23.168Z,12.60
2023-02-25T11:39:22.773Z,12.62
2023-02-25T11:40:23.127Z,12.85
2023-02-25T11:41:23.242Z,12.83
2023-02-25T11:42:22.310Z,13.19
2023-02-25T11:44:22.673Z,12.92
2023-02-25T11:45:22.655Z,12.85
2023-02-25T11:46:22.920Z,12.73
2023-02-25T11:47:23.065Z,12.71
2023-02-25T11:48:22.409Z,12.71
2023-02-25T11:49:22.303Z,12.64
2023-02-25T11:50:22.449Z,12.52
2023-02-25T11:51:22.593Z,12.32
2023-02-25T11:52:23.237Z,12.36
2023-02-25T11:53:22.014Z,12.56
2023-02-25T11:54:22.760Z,12.22
2023-02-25T11:55:23.361Z,11.96
2023-02-25T11:56:23.396Z,11.78
2023-02-25T11:57:23.374Z,11.72
2023-02-25T11:58:22.699Z,11.68
2023-02-25T11:59:23.493Z,11.78
2023-02-25T12:00:42.818Z,11.56
2023-02-25T12:01:23.444Z,11.39
2023-02-25T12:02:22.870Z,11.23
2023-02-25T12:03:22.670Z,11.21
2023-02-25T12:04:22.980Z,11.07
2023-02-25T12:05:23.702Z,10.96
2023-02-25T12:06:42.765Z,10.92
2023-02-25T12:07:24.184Z,10.82
2023-02-25T12:08:22.877Z,10.87
2023-02-25T12:09:22.918Z,10.83
2023-02-25T12:10:23.208Z,10.81
2023-02-25T12:11:24.288Z,10.80
2023-02-25T12:12:22.343Z,10.80
2023-02-25T12:13:22.593Z,10.92
2023-02-25T12:14:21.748Z,11.04
2023-02-25T12:15:22.663Z,11.06
2023-02-25T12:16:23.392Z,11.20
2023-02-25T12:17:22.511Z,11.18
2023-02-25T12:18:22.742Z,11.14
2023-02-25T12:19:22.634Z,11.08
2023-02-25T12:20:22.961Z,11.18
2023-02-25T12:21:23.170Z,11.12
2023-02-25T12:23:25.827Z,11.12
2023-02-25T12:24:23.069Z,11.07
2023-02-25T12:25:23.415Z,11.14
2023-02-25T12:26:23.374Z,11.19
2023-02-25T12:27:23.389Z,11.37
2023-02-25T12:28:22.777Z,11.37
2023-02-25T12:29:23.250Z,11.42
2023-02-25T12:30:23.086Z,11.51
2023-02-25T12:31:24.121Z,11.49
2023-02-25T12:32:23.819Z,11.35
2023-02-25T12:33:23.503Z,11.43
2023-02-25T12:34:22.979Z,11.48
2023-02-25T12:35:23.071Z,11.56
2023-02-25T12:36:23.616Z,11.52
2023-02-25T12:37:25.013Z,11.44
2023-02-25T12:38:21.929Z,11.42
2023-02-25T12:39:22.694Z,11.5
2023-02-25T12:40:22.723Z,11.46
2023-02-25T12:41:23.249Z,11.37
2023-02-25T12:42:23.037Z,11.37
2023-02-25T12:43:22.543Z,11.31
2023-02-25T12:44:22.783Z,11.61
2023-02-25T12:45:22.386Z,11.52
2023-02-25T12:46:23.918Z,11.50
2023-02-25T12:47:22.495Z,11.5
2023-02-25T12:48:23.584Z,11.60
2023-02-25T12:49:22.660Z,11.60
2023-02-25T12:50:22.813Z,11.73
2023-02-25T12:51:22.192Z,12.10
2023-02-25T12:52:22.488Z,12.27
2023-02-25T12:53:22.034Z,12.25
2023-02-25T12:54:22.550Z,12.25
2023-02-25T12:55:22.658Z,12.26
2023-02-25T12:56:23.067Z,12.37
2023-02-25T12:57:22.577Z,12.39